createdAt,value
2017-08-14T00:00:06.049Z,99.99
2017-08-14T00:01:06.083Z,99.99
2017-08-14T00:02:06.112Z,99.99
2017-08-14T00:03:06.617Z,99.99
2017-08-14T00:04:06.636Z,99.99
2017-08-14T00:05:06.460Z,99.99
2017-08-14T00:06:06.786Z,99.99
2017-08-14T00:07:06.737Z,99.99
2017-08-14T00:08:06.775Z,99.99
2017-08-14T00:09:06.803Z,99.99
2017-08-14T00:10:06.885Z,99.99
2017-08-14T00:11:06.873Z,99.99
2017-08-14T00:12:06.908Z,99.99
2017-08-14T00:13:06.951Z,99.99
2017-08-14T00:14:07.393Z,99.99
2017-08-14T00:15:08.161Z,99.99
2017-08-14T00:16:08.191Z,99.99
2017-08-14T00:17:08.231Z,99.99
2017-08-14T00:18:08.261Z,99.99
2017-08-14T00:19:08.299Z,99.99
2017-08-14T00:20:08.324Z,99.99
2017-08-14T00:21:08.363Z,99.99
2017-08-14T00:22:08.070Z,99.99
2017-08-14T00:23:08.430Z,99.99
2017-08-14T00:24:08.460Z,99.99
2017-08-14T00:25:08.513Z,99.99
2017-08-14T00:26:08.203Z,99.99
2017-08-14T00:27:08.565Z,99.99
2017-08-14T00:28:08.594Z,99.99
2017-08-14T00:29:08.635Z,99.99
2017-08-14T00:30:08.671Z,99.99
2017-08-14T00:31:08.700Z,99.99
2017-08-14T00:32:08.729Z,99.99
2017-08-14T00:33:09.184Z,99.99
2017-08-14T00:34:09.220Z,99.99
2017-08-14T00:35:09.244Z,99.99
2017-08-14T00:36:09.285Z,99.99
2017-08-14T00:37:09.314Z,99.99
2017-08-14T00:38:09.349Z,99.99
2017-08-14T00:39:09.386Z,99.99
2017-08-14T00:40:09.412Z,99.99
2017-08-14T00:41:09.870Z,99.99
2017-08-14T00:42:09.581Z,99.99
2017-08-14T00:43:09.618Z,99.99
2017-08-14T00:44:10.107Z,99.99
2017-08-14T00:45:10.616Z,99.99
2017-08-14T00:46:10.646Z,99.99
2017-08-14T00:47:10.363Z,99.99
2017-08-14T00:48:11.154Z,99.99
2017-08-14T00:49:11.192Z,99.99
2017-08-14T00:50:10.893Z,99.99
2017-08-14T00:51:10.924Z,99.99
2017-08-14T00:52:10.965Z,99.99
2017-08-14T00:53:11.464Z,99.99
2017-08-14T00:54:11.499Z,99.99
2017-08-14T00:55:11.531Z,99.99
2017-08-14T00:56:11.574Z,99.99
2017-08-14T00:57:11.601Z,99.99
2017-08-14T00:58:12.074Z,99.99
2017-08-14T00:59:11.781Z,99.99
2017-08-14T01:00:12.141Z,99.99
2017-08-14T01:01:11.831Z,99.99
2017-08-14T01:02:12.318Z,99.99
2017-08-14T01:03:12.354Z,99.99
2017-08-14T01:04:12.381Z,99.99
2017-08-14T01:05:12.417Z,99.99
2017-08-14T01:06:12.920Z,99.99
2017-08-14T01:07:12.949Z,99.99
2017-08-14T01:08:12.989Z,99.99
2017-08-14T01:09:13.018Z,99.99
2017-08-14T01:10:13.060Z,99.99
2017-08-14T01:11:13.088Z,99.99
2017-08-14T01:12:13.119Z,99.99
2017-08-14T01:13:13.153Z,99.99
2017-08-14T01:14:13.189Z,99.99
2017-08-14T01:15:13.219Z,99.99
2017-08-14T01:16:13.686Z,99.99
2017-08-14T01:17:13.719Z,99.99
2017-08-14T01:18:13.753Z,99.99
2017-08-14T01:19:13.464Z,99.99
2017-08-14T01:20:15.055Z,99.99
2017-08-14T01:21:14.592Z,99.99
2017-08-14T01:22:14.626Z,99.99
2017-08-14T01:23:14.655Z,99.99
2017-08-14T01:24:14.695Z,99.99
2017-08-14T01:25:14.718Z,99.99
2017-08-14T01:26:15.192Z,99.99
2017-08-14T01:27:15.207Z,99.99
2017-08-14T01:28:15.260Z,99.99
2017-08-14T01:29:15.431Z,99.99
2017-08-14T01:30:15.455Z,99.99
2017-08-14T01:31:15.492Z,99.99
2017-08-14T01:32:15.526Z,99.99
2017-08-14T01:33:16.012Z,99.99
2017-08-14T01:34:16.046Z,99.99
2017-08-14T01:35:16.096Z,99.99
2017-08-14T01:36:16.592Z,99.99
2017-08-14T01:37:16.624Z,99.99
2017-08-14T01:38:16.655Z,99.99
2017-08-14T01:39:16.694Z,99.99
2017-08-14T01:40:17.165Z,99.99
2017-08-14T01:41:17.652Z,99.99
2017-08-14T01:42:17.687Z,99.99
2017-08-14T01:43:17.717Z,99.99
2017-08-14T01:44:17.747Z,99.99
2017-08-14T01:45:17.788Z,99.99
2017-08-14T01:46:17.828Z,99.99
2017-08-14T01:47:17.850Z,99.99
2017-08-14T01:48:17.887Z,99.99
2017-08-14T01:49:17.738Z,99.99
2017-08-14T01:50:18.416Z,99.99
2017-08-14T01:51:18.450Z,99.99
2017-08-14T01:52:18.493Z,99.99
2017-08-14T01:53:18.519Z,99.99
2017-08-14T01:54:18.223Z,99.99
2017-08-14T01:55:18.592Z,99.99
2017-08-14T01:56:18.621Z,99.99
2017-08-14T01:57:18.642Z,99.99
2017-08-14T01:58:18.691Z,99.99
2017-08-14T01:59:18.716Z,99.99
2017-08-14T02:00:19.213Z,99.99
2017-08-14T02:01:19.255Z,99.99
2017-08-14T02:02:19.337Z,99.99
2017-08-14T02:03:19.311Z,99.99
2017-08-14T02:04:19.360Z,99.99
2017-08-14T02:05:19.379Z,99.99
2017-08-14T02:06:19.413Z,99.99
2017-08-14T02:07:19.454Z,99.99
2017-08-14T02:08:19.475Z,99.99
2017-08-14T02:09:19.511Z,99.99
2017-08-14T02:10:19.542Z,99.99
2017-08-14T02:11:19.577Z,99.99
2017-08-14T02:12:19.286Z,99.99
2017-08-14T02:13:19.640Z,99.99
2017-08-14T02:14:19.677Z,99.99
2017-08-14T02:15:19.711Z,99.99
2017-08-14T02:16:19.741Z,99.99
2017-08-14T02:17:19.774Z,99.99
2017-08-14T02:18:19.478Z,99.99
2017-08-14T02:19:20.280Z,99.99
2017-08-14T02:20:20.306Z,99.99
2017-08-14T02:21:20.352Z,99.99
2017-08-14T02:22:20.380Z,99.99
2017-08-14T02:23:20.408Z,99.99
2017-08-14T02:24:20.435Z,99.99
2017-08-14T02:25:20.924Z,99.99
2017-08-14T02:26:20.939Z,99.99
2017-08-14T02:27:21.058Z,99.99
2017-08-14T02:28:21.527Z,99.99
2017-08-14T02:29:21.565Z,99.99
2017-08-14T02:30:21.593Z,99.99
2017-08-14T02:31:21.619Z,99.99
2017-08-14T02:32:21.657Z,99.99
2017-08-14T02:33:21.353Z,99.99
2017-08-14T02:34:21.400Z,99.99
2017-08-14T02:35:21.899Z,99.99
2017-08-14T02:36:21.935Z,99.99
2017-08-14T02:37:21.638Z,99.99
2017-08-14T02:38:22.458Z,99.99
2017-08-14T02:39:22.494Z,99.99
2017-08-14T02:40:22.526Z,99.99
2017-08-14T02:41:22.558Z,99.99
2017-08-14T02:42:22.585Z,99.99
2017-08-14T02:43:22.623Z,99.99
2017-08-14T02:44:22.656Z,99.99
2017-08-14T02:45:22.693Z,99.99
2017-08-14T02:46:22.723Z,99.99
2017-08-14T02:47:22.751Z,99.99
2017-08-14T02:48:22.786Z,99.99
2017-08-14T02:49:22.496Z,99.99
2017-08-14T02:50:23.120Z,99.99
2017-08-14T02:51:23.347Z,99.99
2017-08-14T02:52:23.376Z,99.99
2017-08-14T02:53:23.411Z,99.99
2017-08-14T02:54:23.442Z,99.99
2017-08-14T02:55:23.472Z,99.99
2017-08-14T02:56:23.504Z,99.99
2017-08-14T02:57:23.536Z,99.99
2017-08-14T02:58:23.242Z,99.99
2017-08-14T02:59:23.278Z,99.99
2017-08-14T03:00:23.634Z,99.99
2017-08-14T03:01:23.776Z,99.99
2017-08-14T03:02:23.373Z,99.99
2017-08-14T03:03:23.735Z,99.99
2017-08-14T03:04:23.768Z,99.99
2017-08-14T03:05:23.800Z,99.99
2017-08-14T03:06:23.847Z,99.99
2017-08-14T03:07:23.868Z,99.99
2017-08-14T03:08:23.897Z,99.99
2017-08-14T03:09:23.938Z,99.99
2017-08-14T03:10:24.062Z,99.99
2017-08-14T03:11:24.002Z,99.99
2017-08-14T03:12:24.026Z,99.99
2017-08-14T03:13:23.738Z,99.99
2017-08-14T03:14:24.547Z,99.99
2017-08-14T03:15:24.251Z,99.99
2017-08-14T03:16:25.039Z,99.99
2017-08-14T03:17:25.067Z,99.99
2017-08-14T03:18:25.568Z,99.99
2017-08-14T03:19:25.591Z,99.99
2017-08-14T03:20:25.756Z,99.99
2017-08-14T03:21:26.108Z,99.99
2017-08-14T03:22:25.820Z,99.99
2017-08-14T03:23:26.625Z,99.99
2017-08-14T03:24:26.653Z,99.99
2017-08-14T03:25:26.686Z,99.99
2017-08-14T03:26:26.723Z,99.99
2017-08-14T03:27:26.750Z,99.99
2017-08-14T03:28:26.805Z,99.99
2017-08-14T03:29:26.824Z,99.99
2017-08-14T03:30:26.528Z,99.99
2017-08-14T03:31:26.885Z,99.99
2017-08-14T03:32:26.919Z,99.99
2017-08-14T03:33:26.950Z,99.99
2017-08-14T03:34:26.663Z,99.99
2017-08-14T03:35:27.025Z,99.99
2017-08-14T03:36:26.729Z,99.99
2017-08-14T03:37:27.108Z,99.99
2017-08-14T03:38:27.119Z,99.99
2017-08-14T03:39:26.827Z,99.99
2017-08-14T03:40:26.873Z,99.99
2017-08-14T03:41:27.642Z,99.99
2017-08-14T03:42:27.677Z,99.99
2017-08-14T03:43:27.711Z,99.99
2017-08-14T03:44:27.745Z,99.99
2017-08-14T03:45:28.235Z,99.99
2017-08-14T03:46:27.938Z,99.99
2017-08-14T03:47:28.302Z,99.99
2017-08-14T03:48:28.348Z,99.99
2017-08-14T03:49:28.367Z,99.99
2017-08-14T03:50:28.397Z,99.99
2017-08-14T03:51:28.877Z,99.99
2017-08-14T03:52:28.581Z,99.99
2017-08-14T03:53:28.973Z,99.99
2017-08-14T03:54:29.456Z,99.99
2017-08-14T03:55:29.168Z,99.99
2017-08-14T03:56:29.998Z,99.99
2017-08-14T03:57:30.028Z,99.99
2017-08-14T03:58:30.053Z,99.99
2017-08-14T03:59:30.088Z,99.99
2017-08-14T04:00:30.527Z,99.99
2017-08-14T04:01:30.557Z,99.99
2017-08-14T04:02:30.598Z,99.99
2017-08-14T04:03:30.615Z,99.99
2017-08-14T04:04:30.650Z,99.99
2017-08-14T04:05:30.679Z,99.99
2017-08-14T04:06:30.712Z,99.99
2017-08-14T04:07:31.059Z,99.99
2017-08-14T04:08:31.084Z,99.99
2017-08-14T04:09:31.121Z,99.99
2017-08-14T04:10:30.821Z,99.99
2017-08-14T04:11:31.180Z,99.99
2017-08-14T04:12:31.223Z,99.99
2017-08-14T04:13:31.252Z,99.99
2017-08-14T04:14:31.287Z,99.99
2017-08-14T04:15:31.318Z,99.99
2017-08-14T04:16:31.350Z,99.99
2017-08-14T04:17:31.378Z,99.99
2017-08-14T04:18:31.089Z,99.99
2017-08-14T04:19:31.447Z,99.99
2017-08-14T04:20:31.154Z,99.99
2017-08-14T04:21:31.506Z,99.99
2017-08-14T04:22:31.544Z,99.99
2017-08-14T04:23:31.575Z,99.99
2017-08-14T04:24:31.621Z,99.99
2017-08-14T04:25:31.649Z,99.99
2017-08-14T04:26:31.677Z,99.99
2017-08-14T04:27:31.703Z,99.99
2017-08-14T04:28:31.747Z,99.99
2017-08-14T04:29:32.130Z,99.99
2017-08-14T04:30:32.153Z,99.99
2017-08-14T04:31:32.195Z,99.99
2017-08-14T04:32:32.225Z,99.99
2017-08-14T04:33:32.260Z,99.99
2017-08-14T04:34:32.285Z,99.99
2017-08-14T04:35:32.328Z,99.99
2017-08-14T04:36:32.357Z,99.99
2017-08-14T04:37:32.388Z,99.99
2017-08-14T04:38:32.425Z,99.99
2017-08-14T04:39:32.760Z,99.99
2017-08-14T04:40:32.781Z,99.99
2017-08-14T04:41:32.825Z,99.99
2017-08-14T04:42:32.855Z,99.99
2017-08-14T04:43:32.887Z,99.99
2017-08-14T04:44:32.592Z,99.99
2017-08-14T04:45:33.260Z,99.99
2017-08-14T04:46:33.595Z,99.99
2017-08-14T04:47:33.633Z,99.99
2017-08-14T04:48:33.661Z,99.99
2017-08-14T04:49:33.690Z,99.99
2017-08-14T04:50:33.735Z,99.99
2017-08-14T04:51:33.761Z,99.99
2017-08-14T04:52:33.796Z,99.99
2017-08-14T04:53:33.844Z,99.99
2017-08-14T04:54:33.858Z,99.99
2017-08-14T04:55:33.900Z,99.99
2017-08-14T04:56:33.929Z,99.99
2017-08-14T04:57:33.631Z,99.99
2017-08-14T04:58:33.994Z,99.99
2017-08-14T04:59:34.030Z,99.99
2017-08-14T05:00:34.066Z,99.99
2017-08-14T05:01:34.519Z,99.99
2017-08-14T05:02:34.515Z,99.99
2017-08-14T05:03:34.549Z,99.99
2017-08-14T05:04:34.572Z,99.99
2017-08-14T05:05:34.609Z,99.99
2017-08-14T05:06:34.664Z,99.99
2017-08-14T05:07:35.350Z,99.99
2017-08-14T05:08:35.691Z,99.99
2017-08-14T05:09:35.729Z,99.99
2017-08-14T05:10:35.760Z,99.99
2017-08-14T05:11:35.793Z,99.99
2017-08-14T05:12:35.495Z,99.99
2017-08-14T05:13:35.864Z,99.99
2017-08-14T05:14:35.898Z,99.99
2017-08-14T05:15:35.926Z,99.99
2017-08-14T05:16:35.629Z,99.99
2017-08-14T05:17:36.034Z,99.99
2017-08-14T05:18:36.064Z,99.99
2017-08-14T05:19:36.112Z,99.99
2017-08-14T05:20:36.133Z,99.99
2017-08-14T05:21:36.512Z,99.99
2017-08-14T05:22:36.540Z,99.99
2017-08-14T05:23:36.582Z,99.99
2017-08-14T05:24:36.612Z,99.99
2017-08-14T05:25:36.631Z,99.99
2017-08-14T05:26:36.674Z,99.99
2017-08-14T05:27:36.708Z,99.99
2017-08-14T05:28:36.749Z,99.99
2017-08-14T05:29:36.775Z,99.99
2017-08-14T05:30:36.816Z,99.99
2017-08-14T05:31:36.848Z,99.99
2017-08-14T05:32:36.878Z,99.99
2017-08-14T05:33:36.798Z,99.99
2017-08-14T05:34:36.954Z,99.99
2017-08-14T05:35:36.983Z,99.99
2017-08-14T05:36:37.020Z,99.99
2017-08-14T05:37:36.726Z,99.99
2017-08-14T05:38:37.090Z,99.99
2017-08-14T05:39:37.125Z,99.99
2017-08-14T05:40:37.160Z,99.99
2017-08-14T05:41:37.230Z,99.99
2017-08-14T05:42:37.229Z,99.99
2017-08-14T05:43:37.261Z,99.44
2017-08-14T05:44:37.297Z,98.72
2017-08-14T05:45:37.339Z,96.08
2017-08-14T05:46:37.369Z,94.73
2017-08-14T05:47:37.069Z,94.54
2017-08-14T05:48:37.435Z,95.17
2017-08-14T05:49:37.472Z,95.26
2017-08-14T05:50:37.502Z,97.14
2017-08-14T05:51:37.574Z,97.28
2017-08-14T05:52:37.951Z,98.53
2017-08-14T05:53:38.327Z,98.29
2017-08-14T05:54:38.359Z,97.71
2017-08-14T05:55:38.390Z,98.58
2017-08-14T05:56:38.104Z,98.68
2017-08-14T05:57:38.531Z,98.48
2017-08-14T05:58:38.556Z,97.04
2017-08-14T05:59:38.587Z,97.62
2017-08-14T06:00:38.327Z,97.04
2017-08-14T06:01:39.044Z,97.91
2017-08-14T06:02:39.081Z,98.77
2017-08-14T06:03:39.496Z,99.54
2017-08-14T06:04:39.530Z,99.44
2017-08-14T06:05:39.231Z,97.62
2017-08-14T06:06:39.283Z,94.73
2017-08-14T06:07:39.334Z,97.19
2017-08-14T06:08:39.356Z,97.09
2017-08-14T06:09:39.718Z,97.09
2017-08-14T06:10:39.744Z,96.22
2017-08-14T06:11:39.785Z,94.88
2017-08-14T06:12:39.830Z,94.49
2017-08-14T06:13:39.862Z,94.01
2017-08-14T06:14:39.910Z,95.12
2017-08-14T06:15:39.935Z,93.48
2017-08-14T06:16:39.965Z,93.15
2017-08-14T06:17:40.006Z,91.94
2017-08-14T06:18:40.056Z,89.29
2017-08-14T06:19:40.073Z,87.06
2017-08-14T06:20:40.106Z,83.92
2017-08-14T06:21:40.148Z,83.63
2017-08-14T06:22:40.185Z,84.54
2017-08-14T06:23:40.216Z,82.56
2017-08-14T06:24:40.269Z,82.6
2017-08-14T06:25:40.672Z,79.25
2017-08-14T06:26:41.037Z,78.27
2017-08-14T06:27:41.066Z,73.27
2017-08-14T06:28:41.138Z,74.86
2017-08-14T06:29:41.144Z,74.32
2017-08-14T06:30:41.177Z,72.55
2017-08-14T06:31:41.220Z,71.94
2017-08-14T06:32:41.262Z,70.29
2017-08-14T06:33:40.968Z,68.06
2017-08-14T06:34:41.671Z,65.63
2017-08-14T06:35:41.701Z,59.74
2017-08-14T06:36:41.745Z,58.2
2017-08-14T06:37:41.491Z,56.15
2017-08-14T06:38:41.887Z,57.54
2017-08-14T06:39:41.902Z,57.64
2017-08-14T06:40:41.947Z,52.69
2017-08-14T06:41:42.303Z,54.05
2017-08-14T06:42:42.342Z,52.88
2017-08-14T06:43:42.369Z,53.08
2017-08-14T06:44:42.419Z,52
2017-08-14T06:45:42.129Z,51.44
2017-08-14T06:46:42.165Z,51.61
2017-08-14T06:47:42.536Z,52.32
2017-08-14T06:48:42.573Z,53.33
2017-08-14T06:49:42.667Z,53.64
2017-08-14T06:50:42.332Z,52
2017-08-14T06:51:42.707Z,52.55
2017-08-14T06:52:42.743Z,50.71
2017-08-14T06:53:42.463Z,49.07
2017-08-14T06:54:42.497Z,49.75
2017-08-14T06:55:42.868Z,49.75
2017-08-14T06:56:43.252Z,49.85
2017-08-14T06:57:42.952Z,48.6
2017-08-14T06:58:43.316Z,50.27
2017-08-14T06:59:43.365Z,48.62
2017-08-14T07:00:43.069Z,48.3
2017-08-14T07:01:43.445Z,48.89
2017-08-14T07:02:43.488Z,48.72
2017-08-14T07:03:43.909Z,49.31
2017-08-14T07:04:44.261Z,46.78
2017-08-14T07:05:44.306Z,45.62
2017-08-14T07:06:44.345Z,45.13
2017-08-14T07:07:44.386Z,44.91
2017-08-14T07:08:44.097Z,47.74
2017-08-14T07:09:44.523Z,46.63
2017-08-14T07:10:44.528Z,46.83
2017-08-14T07:11:44.573Z,45.26
2017-08-14T07:12:44.615Z,47.22
2017-08-14T07:13:44.648Z,47.32
2017-08-14T07:14:44.694Z,46.63
2017-08-14T07:15:44.772Z,46.17
2017-08-14T07:16:44.815Z,45.7
2017-08-14T07:17:44.861Z,45.7
2017-08-14T07:18:44.577Z,43.95
2017-08-14T07:19:44.968Z,44.52
2017-08-14T07:20:44.988Z,45.6
2017-08-14T07:21:45.369Z,45.89
2017-08-14T07:22:45.794Z,43.95
2017-08-14T07:23:45.812Z,45.54
2017-08-14T07:24:45.863Z,43.75
2017-08-14T07:25:45.895Z,43.65
2017-08-14T07:26:45.946Z,44.95
2017-08-14T07:27:45.992Z,43.79
2017-08-14T07:28:46.375Z,44.19
2017-08-14T07:29:46.422Z,45.29
2017-08-14T07:30:46.456Z,43.42
2017-08-14T07:31:46.168Z,43.42
2017-08-14T07:32:46.208Z,44.03
2017-08-14T07:33:46.899Z,43.24
2017-08-14T07:34:46.931Z,43.74
2017-08-14T07:35:47.001Z,41.09
2017-08-14T07:36:47.026Z,40.72
2017-08-14T07:37:46.741Z,41.78
2017-08-14T07:38:47.110Z,40.53
2017-08-14T07:39:47.159Z,40.53
2017-08-14T07:40:47.196Z,42
2017-08-14T07:41:47.238Z,40.84
2017-08-14T07:42:46.960Z,40.76
2017-08-14T07:43:47.003Z,39.2
2017-08-14T07:44:47.367Z,40.47
2017-08-14T07:45:47.411Z,40.88
2017-08-14T07:46:47.135Z,39.72
2017-08-14T07:47:47.795Z,38.43
2017-08-14T07:48:48.139Z,37.16
2017-08-14T07:49:47.859Z,39
2017-08-14T07:50:48.223Z,40.07
2017-08-14T07:51:48.272Z,39.4
2017-08-14T07:52:48.022Z,38.81
2017-08-14T07:53:48.707Z,39.89
2017-08-14T07:54:48.419Z,39.52
2017-08-14T07:55:48.792Z,40.53
2017-08-14T07:56:48.833Z,40.82
2017-08-14T07:57:48.879Z,40.41
2017-08-14T07:58:48.932Z,39.73
2017-08-14T07:59:49.068Z,39.85
2017-08-14T08:00:49.016Z,39
2017-08-14T08:01:49.469Z,37.93
2017-08-14T08:02:49.471Z,39.23
2017-08-14T08:03:49.517Z,39.04
2017-08-14T08:04:49.560Z,37.93
2017-08-14T08:05:49.276Z,37.55
2017-08-14T08:06:49.650Z,37.65
2017-08-14T08:07:49.701Z,37.85
2017-08-14T08:08:49.736Z,37.55
2017-08-14T08:09:49.778Z,36.58
2017-08-14T08:10:49.832Z,36.98
2017-08-14T08:11:49.873Z,34.81
2017-08-14T08:12:49.920Z,35.5
2017-08-14T08:13:49.969Z,34.71
2017-08-14T08:14:50.005Z,36.48
2017-08-14T08:15:50.050Z,36.96
2017-08-14T08:16:50.405Z,34.78
2017-08-14T08:17:50.777Z,35.25
2017-08-14T08:18:50.826Z,38.03
2017-08-14T08:19:50.876Z,36.86
2017-08-14T08:20:50.901Z,36.16
2017-08-14T08:21:50.629Z,35.98
2017-08-14T08:22:50.678Z,36.36
2017-08-14T08:23:51.056Z,36.48
2017-08-14T08:24:51.105Z,34.78
2017-08-14T08:25:51.140Z,35.86
2017-08-14T08:26:50.858Z,37.05
2017-08-14T08:27:51.255Z,39.83
2017-08-14T08:28:51.644Z,39.73
2017-08-14T08:29:51.685Z,44.23
2017-08-14T08:30:51.730Z,40.21
2017-08-14T08:31:51.778Z,39.6
2017-08-14T08:32:51.820Z,38.75
2017-08-14T08:33:52.208Z,39.16
2017-08-14T08:34:52.234Z,38.7
2017-08-14T08:35:52.313Z,37.17
2017-08-14T08:36:52.341Z,35.92
2017-08-14T08:37:52.391Z,35.44
2017-08-14T08:38:52.426Z,35.54
2017-08-14T08:39:52.481Z,35.75
2017-08-14T08:40:52.518Z,35.14
2017-08-14T08:41:52.564Z,35.34
2017-08-14T08:42:52.615Z,35.83
2017-08-14T08:43:52.660Z,36.16
2017-08-14T08:44:52.730Z,36.88
2017-08-14T08:45:52.751Z,39
2017-08-14T08:46:52.807Z,38.69
2017-08-14T08:47:52.512Z,37.72
2017-08-14T08:48:53.230Z,39.03
2017-08-14T08:49:53.266Z,42.08
2017-08-14T08:50:53.295Z,38.51
2017-08-14T08:51:53.336Z,39.52
2017-08-14T08:52:53.384Z,36.98
2017-08-14T08:53:53.430Z,36.62
2017-08-14T08:54:53.151Z,36.26
2017-08-14T08:55:53.194Z,35.78
2017-08-14T08:56:53.886Z,37.07
2017-08-14T08:57:53.924Z,36.08
2017-08-14T08:58:53.979Z,35.37
2017-08-14T08:59:54.023Z,35.39
2017-08-14T09:00:54.067Z,35.98
2017-08-14T09:01:54.126Z,36.05
2017-08-14T09:02:54.162Z,36.92
2017-08-14T09:03:54.207Z,37.04
2017-08-14T09:04:54.247Z,36.07
2017-08-14T09:05:54.295Z,34.84
2017-08-14T09:06:54.339Z,34.76
2017-08-14T09:07:54.385Z,34.91
2017-08-14T09:08:54.434Z,34.33
2017-08-14T09:09:54.484Z,32.35
2017-08-14T09:10:54.520Z,33.26
2017-08-14T09:11:54.609Z,31.86
2017-08-14T09:12:54.645Z,32.21
2017-08-14T09:13:54.703Z,32.49
2017-08-14T09:14:54.740Z,33.67
2017-08-14T09:15:54.803Z,33.07
2017-08-14T09:16:54.510Z,34.17
2017-08-14T09:17:55.211Z,34.36
2017-08-14T09:18:54.927Z,32.18
2017-08-14T09:19:55.301Z,33.04
2017-08-14T09:20:55.358Z,34.06
2017-08-14T09:21:55.396Z,35.21
2017-08-14T09:22:55.148Z,36.08
2017-08-14T09:23:55.161Z,37.13
2017-08-14T09:24:55.518Z,39.03
2017-08-14T09:25:55.259Z,40.72
2017-08-14T09:26:55.631Z,39.11
2017-08-14T09:27:55.690Z,37.77
2017-08-14T09:28:55.423Z,38.6
2017-08-14T09:29:56.117Z,36.99
2017-08-14T09:30:56.156Z,36.39
2017-08-14T09:31:56.207Z,35.49
2017-08-14T09:32:56.249Z,34.86
2017-08-14T09:33:56.289Z,34.03
2017-08-14T09:34:56.341Z,31.89
2017-08-14T09:35:56.793Z,32.23
2017-08-14T09:36:56.835Z,31.28
2017-08-14T09:37:56.888Z,30.01
2017-08-14T09:38:56.942Z,28.03
2017-08-14T09:39:56.985Z,28.94
2017-08-14T09:40:57.031Z,30.02
2017-08-14T09:41:57.084Z,29.82
2017-08-14T09:42:57.133Z,29.74
2017-08-14T09:43:57.177Z,29.47
2017-08-14T09:44:57.223Z,28.16
2017-08-14T09:45:56.941Z,29.28
2017-08-14T09:46:57.348Z,28.17
2017-08-14T09:47:57.711Z,28.48
2017-08-14T09:48:57.774Z,28.28
2017-08-14T09:49:57.817Z,28.38
2017-08-14T09:50:58.266Z,28.28
2017-08-14T09:51:58.324Z,27.76
2017-08-14T09:52:58.034Z,28.96
2017-08-14T09:53:58.398Z,28.56
2017-08-14T09:54:58.451Z,27.59
2017-08-14T09:55:58.191Z,27.87
2017-08-14T09:56:58.603Z,27.87
2017-08-14T09:57:58.614Z,27.87
2017-08-14T09:58:58.895Z,30.95
2017-08-14T09:59:58.740Z,29.53
2017-08-14T10:00:58.795Z,29.31
2017-08-14T10:01:58.846Z,30.71
2017-08-14T10:02:58.865Z,30.49
2017-08-14T10:03:58.610Z,34.36
2017-08-14T10:04:58.989Z,33.26
2017-08-14T10:05:58.720Z,35.44
2017-08-14T10:06:59.457Z,36.71
2017-08-14T10:07:59.931Z,38.96
2017-08-14T10:09:00.164Z,40.76
2017-08-14T10:09:59.979Z,42.06
2017-08-14T10:11:00.014Z,43.57
2017-08-14T10:12:00.048Z,42.58
2017-08-14T10:13:00.098Z,41.51
2017-08-14T10:14:00.220Z,40.64
2017-08-14T10:15:00.585Z,34.73
2017-08-14T10:16:00.605Z,35.35
2017-08-14T10:17:00.660Z,34.84
2017-08-14T10:18:00.731Z,34.66
2017-08-14T10:19:00.737Z,35.47
2017-08-14T10:20:00.797Z,33.4
2017-08-14T10:21:00.519Z,34.58
2017-08-14T10:22:00.562Z,34.4
2017-08-14T10:23:00.652Z,31.88
2017-08-14T10:24:01.335Z,33.45
2017-08-14T10:25:01.111Z,34.68
2017-08-14T10:26:01.422Z,35.28
2017-08-14T10:27:01.699Z,34.66
2017-08-14T10:28:01.539Z,37.8
2017-08-14T10:29:01.558Z,37.65
2017-08-14T10:30:01.598Z,38.36
2017-08-14T10:31:01.318Z,38.76
2017-08-14T10:32:01.738Z,37.24
2017-08-14T10:33:01.732Z,35.4
2017-08-14T10:34:01.787Z,35.55
2017-08-14T10:35:01.846Z,34.39
2017-08-14T10:36:01.867Z,34.92
2017-08-14T10:37:01.912Z,34.45
2017-08-14T10:38:01.943Z,33.75
2017-08-14T10:39:02.001Z,36.08
2017-08-14T10:40:01.703Z,36.8
2017-08-14T10:41:02.086Z,38.4
2017-08-14T10:42:02.128Z,39.07
2017-08-14T10:43:02.160Z,38.43
2017-08-14T10:44:02.218Z,36.04
2017-08-14T10:45:02.359Z,34.83
2017-08-14T10:46:02.561Z,35.17
2017-08-14T10:47:02.378Z,36.61
2017-08-14T10:48:02.414Z,33.11
2017-08-14T10:49:02.903Z,34.86
2017-08-14T10:50:02.144Z,33.77
2017-08-14T10:51:02.903Z,34.06
2017-08-14T10:52:02.938Z,34.08
2017-08-14T10:53:03.315Z,34.1
2017-08-14T10:54:03.345Z,36.71
2017-08-14T10:55:03.396Z,36.41
2017-08-14T10:56:03.814Z,34.1
2017-08-14T10:57:03.503Z,33.49
2017-08-14T10:58:03.686Z,33.11
2017-08-14T10:59:04.062Z,32.03
2017-08-14T11:00:04.161Z,31.34
2017-08-14T11:01:04.149Z,32.05
2017-08-14T11:02:04.189Z,32.86
2017-08-14T11:03:04.621Z,32.87
2017-08-14T11:04:04.997Z,32.78
2017-08-14T11:05:05.040Z,33.75
2017-08-14T11:06:05.081Z,34.13
2017-08-14T11:07:05.118Z,34.92
2017-08-14T11:08:05.165Z,39.63
2017-08-14T11:09:05.203Z,36.63
2017-08-14T11:10:04.909Z,38.78
2017-08-14T11:11:05.286Z,41.11
2017-08-14T11:12:06.134Z,42.11
2017-08-14T11:13:05.710Z,45.28
2017-08-14T11:14:05.754Z,44.94
2017-08-14T11:15:05.457Z,45.53
2017-08-14T11:16:05.877Z,48.83
2017-08-14T11:17:06.268Z,48.39
2017-08-14T11:18:06.731Z,47.31
2017-08-14T11:19:07.173Z,49.46
2017-08-14T11:20:07.195Z,50.78
2017-08-14T11:21:07.235Z,52.4
2017-08-14T11:22:07.273Z,53.06
2017-08-14T11:23:07.320Z,50.12
2017-08-14T11:24:07.355Z,51.55
2017-08-14T11:25:07.072Z,53.08
2017-08-14T11:26:07.440Z,56.26
2017-08-14T11:27:07.476Z,54.42
2017-08-14T11:28:07.518Z,53.71
2017-08-14T11:29:07.233Z,55.24
2017-08-14T11:30:07.266Z,54.17
2017-08-14T11:31:07.928Z,51.23
2017-08-14T11:32:07.956Z,48.02
2017-08-14T11:33:08.000Z,45.72
2017-08-14T11:34:08.034Z,45.1
2017-08-14T11:35:08.188Z,45.5
2017-08-14T11:36:07.787Z,44.28
2017-08-14T11:37:08.139Z,45.8
2017-08-14T11:38:08.203Z,48.29
2017-08-14T11:39:08.228Z,49.05
2017-08-14T11:40:08.586Z,48.36
2017-08-14T11:41:08.635Z,44.51
2017-08-14T11:42:08.348Z,45.65
2017-08-14T11:43:08.721Z,43.05
2017-08-14T11:44:08.755Z,42.02
2017-08-14T11:45:08.800Z,42.72
2017-08-14T11:46:08.842Z,44.71
2017-08-14T11:47:08.875Z,48.65
2017-08-14T11:48:08.577Z,47.12
2017-08-14T11:49:08.613Z,50.07
2017-08-14T11:50:09.317Z,50.99
2017-08-14T11:51:09.331Z,50.38
2017-08-14T11:52:09.374Z,50.07
2017-08-14T11:53:09.409Z,51.6
2017-08-14T11:54:09.149Z,53.32
2017-08-14T11:55:09.496Z,53.81
2017-08-14T11:56:09.200Z,53.22
2017-08-14T11:57:09.579Z,52.74
2017-08-14T11:58:09.622Z,51.77
2017-08-14T11:59:09.652Z,54
2017-08-14T12:00:09.709Z,55.07
2017-08-14T12:01:09.409Z,54.07
2017-08-14T12:02:09.773Z,54.66
2017-08-14T12:03:09.810Z,56.18
2017-08-14T12:04:09.851Z,56.18
2017-08-14T12:05:09.885Z,55.96
2017-08-14T12:06:10.266Z,54.9
2017-08-14T12:07:10.295Z,56.25
2017-08-14T12:08:10.338Z,55.74
2017-08-14T12:09:10.383Z,55.83
2017-08-14T12:10:10.520Z,56.49
2017-08-14T12:11:10.456Z,57.26
2017-08-14T12:12:10.501Z,56.77
2017-08-14T12:13:10.535Z,57.65
2017-08-14T12:14:10.578Z,57.55
2017-08-14T12:15:10.625Z,60.46
2017-08-14T12:16:10.308Z,57.45
2017-08-14T12:17:11.009Z,55.88
2017-08-14T12:18:11.041Z,56.36
2017-08-14T12:19:10.754Z,58.11
2017-08-14T12:20:11.131Z,55.78
2017-08-14T12:21:10.837Z,55.1
2017-08-14T12:22:11.211Z,55.3
2017-08-14T12:23:10.918Z,57.14
2017-08-14T12:24:11.602Z,55.88
2017-08-14T12:25:11.316Z,56.29
2017-08-14T12:26:11.999Z,56.39
2017-08-14T12:27:11.693Z,55.44
2017-08-14T12:28:12.380Z,55.08
2017-08-14T12:29:12.091Z,55.87
2017-08-14T12:30:12.443Z,56.93
2017-08-14T12:31:12.481Z,56.05
2017-08-14T12:32:12.531Z,54.21
2017-08-14T12:33:12.562Z,54.31
2017-08-14T12:34:12.913Z,55.08
2017-08-14T12:35:13.043Z,55.38
2017-08-14T12:36:12.983Z,54.19
2017-08-14T12:37:13.032Z,54.96
2017-08-14T12:38:13.057Z,55.64
2017-08-14T12:39:13.103Z,56.51
2017-08-14T12:40:13.138Z,54.84
2017-08-14T12:41:13.181Z,55.88
2017-08-14T12:42:13.219Z,56.65
2017-08-14T12:43:13.257Z,58.2
2017-08-14T12:44:13.299Z,59.72
2017-08-14T12:45:13.487Z,58.37
2017-08-14T12:46:13.366Z,58.44
2017-08-14T12:47:13.420Z,59.59
2017-08-14T12:48:13.459Z,59.31
2017-08-14T12:49:13.845Z,58.24
2017-08-14T12:50:14.242Z,58.24
2017-08-14T12:51:14.275Z,58.53
2017-08-14T12:52:14.309Z,58.53
2017-08-14T12:53:14.352Z,59.05
2017-08-14T12:54:14.066Z,58.75
2017-08-14T12:55:14.429Z,58.88